Terminal Aerodrome Forecast
Issued by NWS Upton, NY

Home | Current Version | Previous Version | Text Only | Print | Product List | Glossary On
Versions: 1 2 3 4 5 6 7 8 9 10 11 12 13 14 15 16 17 18 19 20 21 22 23 24 25 26 27 28
000
FTUS41 KOKX 241344 AAA
TAFBDR
TAF AMD
KBDR 241344Z 2414/2512 05014G22KT 5SM -SHRA OVC012
     FM241500 05014KT 4SM -SHRA BR OVC008
     FM241800 04015G23KT P6SM VCSH OVC015
     FM242000 03013G21KT P6SM VCSH OVC020
     FM250700 05009KT P6SM VCSH OVC010=

USA.gov is the U.S. government's official web portal to all federal, state and local government web resources and services.